createdAt,value
2022-12-12T00:02:09.655Z,91.89
2022-12-12T00:04:41.662Z,92.10
2022-12-12T00:07:13.626Z,92.54
2022-12-12T00:09:45.617Z,92.04
2022-12-12T00:12:17.544Z,91.85
2022-12-12T00:14:49.485Z,92.32
2022-12-12T00:17:21.515Z,92.43
2022-12-12T00:19:53.464Z,92.49
2022-12-12T00:22:25.426Z,91.89
2022-12-12T00:24:57.337Z,92.10
2022-12-12T00:27:31.752Z,92.63
2022-12-12T00:30:05.933Z,92.36
2022-12-12T00:32:38.048Z,92.40
2022-12-12T00:35:10.413Z,92.34
2022-12-12T00:37:42.557Z,92.29
2022-12-12T00:40:14.464Z,92.36
2022-12-12T00:42:46.429Z,92.32
2022-12-12T00:45:18.421Z,92.33
2022-12-12T00:47:50.522Z,91.63
2022-12-12T00:50:22.442Z,91.99
2022-12-12T00:52:57.363Z,92.13
2022-12-12T00:55:29.591Z,92.05
2022-12-12T00:58:01.671Z,92.32
2022-12-12T01:00:34.413Z,92.31
2022-12-12T01:03:06.404Z,92.32
2022-12-12T01:05:38.444Z,92.51
2022-12-12T01:08:10.770Z,92.41
2022-12-12T01:10:42.759Z,92.36
2022-12-12T01:13:14.694Z,91.93
2022-12-12T01:15:46.737Z,91.78
2022-12-12T01:18:20.138Z,91.86
2022-12-12T01:20:52.726Z,91.83
2022-12-12T01:23:25.052Z,91.62
2022-12-12T01:26:13.609Z,91.56
2022-12-12T01:28:46.301Z,91.93
2022-12-12T01:31:18.363Z,91.65
2022-12-12T01:33:50.898Z,91.25
2022-12-12T01:36:23.944Z,91.18
2022-12-12T01:38:57.175Z,91.70
2022-12-12T01:41:29.233Z,91.38
2022-12-12T01:44:08.050Z,91.30
2022-12-12T01:46:44.396Z,91.80
2022-12-12T01:49:24.763Z,91.50
2022-12-12T01:51:59.447Z,91.28
2022-12-12T01:54:35.763Z,91.19
2022-12-12T01:57:15.288Z,91.31
2022-12-12T01:59:47.408Z,91.27
2022-12-12T02:02:19.488Z,90.84
2022-12-12T02:04:51.827Z,90.75
2022-12-12T02:07:26.370Z,90.90
2022-12-12T02:09:58.299Z,91.06
2022-12-12T02:12:30.468Z,91.27
2022-12-12T02:15:02.694Z,91.16
2022-12-12T02:18:03.518Z,91.38
2022-12-12T02:21:10.657Z,91.33
2022-12-12T02:24:28.750Z,91.65
2022-12-12T02:27:09.372Z,92.24
2022-12-12T02:30:05.321Z,92.26
2022-12-12T02:32:50.879Z,92.46
2022-12-12T02:35:34.610Z,92.71
2022-12-12T02:38:22.607Z,92.78
2022-12-12T02:41:09.959Z,93.03
2022-12-12T02:44:30.937Z,93.05
2022-12-12T02:47:12.796Z,93.47
2022-12-12T02:50:22.042Z,93.23
2022-12-12T02:52:54.164Z,92.63
2022-12-12T02:55:26.231Z,93.04
2022-12-12T02:57:58.522Z,92.82
2022-12-12T03:00:46.886Z,93.00
2022-12-12T03:03:59.958Z,93.13
2022-12-12T03:07:37.822Z,92.88
2022-12-12T03:10:26.903Z,93.31
2022-12-12T03:13:30.301Z,93.32
2022-12-12T03:16:23.069Z,93.81
2022-12-12T03:19:25.622Z,93.27
2022-12-12T03:22:14.579Z,93.11
2022-12-12T03:25:23.754Z,93.16
2022-12-12T03:28:34.062Z,93.93
2022-12-12T03:31:09.202Z,94.50
2022-12-12T03:33:45.444Z,94.88
2022-12-12T03:36:46.463Z,94.25
2022-12-12T03:39:29.702Z,94.15
2022-12-12T03:42:28.347Z,93.96
2022-12-12T03:45:13.095Z,94.31
2022-12-12T03:47:54.569Z,94.14
2022-12-12T03:50:37.928Z,94.21
2022-12-12T03:53:21.103Z,94.41
2022-12-12T03:56:02.160Z,94.04
2022-12-12T03:58:43.383Z,93.91
2022-12-12T04:01:19.769Z,93.65
2022-12-12T04:04:12.346Z,93.47
2022-12-12T04:06:59.514Z,93.32
2022-12-12T04:09:50.513Z,93.33
2022-12-12T04:12:49.010Z,93.48
2022-12-12T04:15:46.859Z,93.17
2022-12-12T04:18:38.207Z,93.97
2022-12-12T04:22:01.131Z,93.93
2022-12-12T04:24:44.386Z,94.03
2022-12-12T04:27:41.029Z,94.08
2022-12-12T04:30:15.554Z,94.04
2022-12-12T04:33:12.007Z,93.94
2022-12-12T04:35:49.477Z,94.03
2022-12-12T04:38:24.318Z,93.90
2022-12-12T04:40:58.763Z,93.67
2022-12-12T04:43:37.952Z,93.56
2022-12-12T04:46:21.587Z,93.58
2022-12-12T04:48:59.861Z,93.93
2022-12-12T04:51:38.163Z,93.66
2022-12-12T04:54:12.277Z,93.59
2022-12-12T04:56:50.302Z,93.14
2022-12-12T04:59:23.124Z,93.01
2022-12-12T05:02:07.729Z,92.80
2022-12-12T05:05:12.631Z,92.67
2022-12-12T05:07:57.236Z,91.96
2022-12-12T05:10:29.419Z,92.23
2022-12-12T05:13:01.673Z,92.29
2022-12-12T05:15:33.804Z,92.20
2022-12-12T05:18:09.191Z,92.09
2022-12-12T05:20:41.215Z,92.33
2022-12-12T05:23:13.177Z,92.32
2022-12-12T05:25:45.383Z,92.26
2022-12-12T05:28:17.311Z,92.44
2022-12-12T05:30:49.281Z,92.38
2022-12-12T05:33:21.239Z,92.41
2022-12-12T05:35:53.199Z,92.42
2022-12-12T05:38:25.110Z,92.43
2022-12-12T05:40:57.077Z,92.40
2022-12-12T05:43:29.072Z,92.27
2022-12-12T05:46:01.231Z,92.20
2022-12-12T05:48:33.682Z,91.96
2022-12-12T05:51:05.769Z,92.02
2022-12-12T05:53:42.897Z,92.34
2022-12-12T05:56:15.277Z,92.33
2022-12-12T05:58:47.187Z,92.32
2022-12-12T06:01:19.170Z,92.04
2022-12-12T06:03:51.272Z,91.98
2022-12-12T06:06:26.110Z,92.12
2022-12-12T06:08:58.026Z,92.28
2022-12-12T06:11:30.102Z,91.98
2022-12-12T06:14:03.141Z,92.18
2022-12-12T06:16:36.209Z,92.16
2022-12-12T06:19:08.175Z,92.31
2022-12-12T06:21:40.157Z,92.63
2022-12-12T06:24:12.146Z,92.41
2022-12-12T06:26:44.183Z,92.56
2022-12-12T06:29:16.129Z,92.08
2022-12-12T06:31:48.846Z,92.18
2022-12-12T06:34:20.798Z,92.35
2022-12-12T06:36:52.826Z,92.29
2022-12-12T06:39:24.830Z,92.55
2022-12-12T06:41:56.821Z,92.00
2022-12-12T06:44:28.763Z,92.07
2022-12-12T06:47:00.751Z,91.92
2022-12-12T06:49:32.696Z,92.04
2022-12-12T06:52:04.820Z,92.08
2022-12-12T06:54:36.830Z,92.33
2022-12-12T06:57:08.879Z,92.26
2022-12-12T06:59:40.900Z,92.13
2022-12-12T07:02:12.960Z,92.04
2022-12-12T07:04:44.888Z,92.26
2022-12-12T07:07:16.916Z,92.07
2022-12-12T07:09:48.958Z,92.76
2022-12-12T07:12:20.940Z,92.20
2022-12-12T07:14:52.980Z,92.64
2022-12-12T07:17:27.921Z,92.47
2022-12-12T07:19:59.879Z,92.38
2022-12-12T07:22:31.866Z,92.32
2022-12-12T07:25:06.730Z,92.40
2022-12-12T07:27:38.818Z,92.54
2022-12-12T07:30:12.470Z,92.74
2022-12-12T07:32:44.412Z,92.25
2022-12-12T07:35:16.466Z,91.57
2022-12-12T07:37:48.500Z,91.55
2022-12-12T07:40:20.432Z,92.19
2022-12-12T07:42:52.536Z,92.22
2022-12-12T07:45:24.899Z,92.11
2022-12-12T07:47:57.195Z,91.84
2022-12-12T07:50:29.320Z,91.69
2022-12-12T07:53:01.294Z,91.90
2022-12-12T07:55:33.739Z,91.70
2022-12-12T07:58:05.676Z,91.72
2022-12-12T08:00:37.763Z,91.34
2022-12-12T08:03:09.728Z,90.75
2022-12-12T08:05:43.266Z,90.69
2022-12-12T08:08:15.786Z,90.71
2022-12-12T08:10:47.799Z,90.71
2022-12-12T08:13:19.726Z,90.27
2022-12-12T08:15:51.703Z,89.92
2022-12-12T08:18:23.648Z,89.50
2022-12-12T08:20:55.942Z,89.03
2022-12-12T08:23:27.869Z,89.63
2022-12-12T08:26:11.747Z,89.68
2022-12-12T08:28:45.868Z,89.72
2022-12-12T08:31:20.536Z,89.51
2022-12-12T08:33:53.405Z,89.28
2022-12-12T08:36:32.140Z,88.80
2022-12-12T08:39:12.387Z,88.15
2022-12-12T08:41:48.036Z,88.32
2022-12-12T08:44:21.021Z,88.58
2022-12-12T08:46:53.298Z,88.04
2022-12-12T08:49:25.255Z,88.12
2022-12-12T08:51:57.225Z,88.02
2022-12-12T08:54:29.870Z,89.03
2022-12-12T08:57:01.789Z,89.16
2022-12-12T08:59:33.721Z,89.12
2022-12-12T09:02:05.836Z,88.63
2022-12-12T09:04:38.117Z,87.92
2022-12-12T09:07:10.054Z,88.58
2022-12-12T09:09:42.031Z,88.28
2022-12-12T09:12:14.102Z,88.09
2022-12-12T09:14:46.121Z,88.13
2022-12-12T09:17:18.042Z,88.06
2022-12-12T09:19:50.324Z,87.69
2022-12-12T09:22:22.458Z,86.55
2022-12-12T09:24:54.399Z,86.76
2022-12-12T09:27:26.361Z,87.14
2022-12-12T09:29:58.807Z,86.88
2022-12-12T09:32:30.746Z,86.02
2022-12-12T09:35:02.724Z,86.49
2022-12-12T09:37:34.859Z,86.73
2022-12-12T09:40:08.054Z,86.71
2022-12-12T09:42:48.327Z,86.87
2022-12-12T09:45:20.576Z,86.75
2022-12-12T09:47:57.855Z,86.06
2022-12-12T09:50:46.060Z,85.86
2022-12-12T09:53:21.991Z,85.69
2022-12-12T09:56:15.066Z,84.99
2022-12-12T09:58:57.647Z,85.06
2022-12-12T10:01:53.190Z,84.90
2022-12-12T10:05:07.497Z,84.31
2022-12-12T10:08:16.718Z,84.37
2022-12-12T10:10:54.798Z,84.12
2022-12-12T10:13:30.236Z,83.54
2022-12-12T10:16:09.985Z,83.29
2022-12-12T10:18:47.527Z,84.21
2022-12-12T10:21:27.899Z,85.14
2022-12-12T10:24:02.831Z,84.43
2022-12-12T10:26:34.739Z,84.19
2022-12-12T10:29:21.757Z,84.66
2022-12-12T10:32:27.769Z,84.22
2022-12-12T10:35:18.808Z,83.95
2022-12-12T10:38:17.367Z,84.23
2022-12-12T10:41:02.214Z,84.02
2022-12-12T10:43:52.439Z,83.10
2022-12-12T10:46:45.919Z,83.17
2022-12-12T10:49:22.385Z,83.99
2022-12-12T10:51:56.897Z,83.06
2022-12-12T10:54:37.270Z,82.89
2022-12-12T10:57:20.233Z,82.30
2022-12-12T10:59:58.211Z,82.12
2022-12-12T11:02:37.965Z,81.30
2022-12-12T11:05:28.615Z,80.49
2022-12-12T11:08:11.328Z,80.23
2022-12-12T11:10:43.524Z,79.52
2022-12-12T11:13:17.490Z,79.45
2022-12-12T11:16:02.497Z,78.52
2022-12-12T11:18:34.643Z,77.76
2022-12-12T11:21:10.370Z,78.13
2022-12-12T11:23:52.495Z,76.99
2022-12-12T11:26:29.470Z,76.98
2022-12-12T11:29:03.233Z,76.74
2022-12-12T11:31:35.824Z,76.51
2022-12-12T11:34:08.153Z,76.86
2022-12-12T11:36:42.424Z,76.95
2022-12-12T11:39:23.982Z,76.82
2022-12-12T11:42:13.950Z,77.33
2022-12-12T11:44:46.980Z,77.00
2022-12-12T11:47:18.857Z,77.32
2022-12-12T11:49:55.767Z,75.83
2022-12-12T11:52:31.079Z,73.73
2022-12-12T11:55:04.226Z,72.57
2022-12-12T11:57:43.834Z,71.25
2022-12-12T12:00:21.110Z,71.87
2022-12-12T12:03:05.464Z,71.50
2022-12-12T12:05:53.940Z,71.12
2022-12-12T12:08:40.095Z,70.96
2022-12-12T12:11:49.942Z,71.24
2022-12-12T12:15:03.448Z,72.45
2022-12-12T12:17:55.411Z,72.27
2022-12-12T12:21:14.737Z,71.86
2022-12-12T12:23:55.931Z,73.10
2022-12-12T12:26:47.607Z,73.78
2022-12-12T12:29:40.705Z,73.81
2022-12-12T12:32:44.450Z,75.04
2022-12-12T12:35:27.408Z,75.46
2022-12-12T12:38:43.113Z,76.11
2022-12-12T12:41:33.148Z,76.33
2022-12-12T12:44:43.562Z,76.06
2022-12-12T12:47:35.168Z,75.45
2022-12-12T12:50:44.225Z,75.84
2022-12-12T12:53:54.645Z,74.05
2022-12-12T12:56:43.776Z,74.59
2022-12-12T12:59:22.968Z,73.75
2022-12-12T13:01:57.902Z,73.94
2022-12-12T13:04:46.156Z,74.33
2022-12-12T13:07:50.136Z,74.50
2022-12-12T13:10:27.399Z,74.43
2022-12-12T13:13:31.935Z,74.19
2022-12-12T13:16:27.146Z,74.90
2022-12-12T13:19:35.652Z,74.24
2022-12-12T13:22:41.694Z,74.78
2022-12-12T13:25:40.564Z,75.26
2022-12-12T13:28:18.957Z,74.14
2022-12-12T13:31:35.947Z,74.24
2022-12-12T13:34:19.946Z,74.91
2022-12-12T13:36:52.520Z,74.39
2022-12-12T13:39:30.788Z,74.59
2022-12-12T13:42:08.691Z,74.70
2022-12-12T13:44:44.383Z,75.13
2022-12-12T13:47:21.987Z,74.67
2022-12-12T13:50:22.965Z,74.71
2022-12-12T13:53:07.014Z,74.89
2022-12-12T13:55:39.113Z,74.69
2022-12-12T13:58:21.458Z,74.66
2022-12-12T14:01:37.755Z,74.81
2022-12-12T14:04:34.468Z,75.34
2022-12-12T14:07:15.442Z,75.49
2022-12-12T14:09:52.573Z,75.66
2022-12-12T14:12:34.818Z,75.77
2022-12-12T14:15:19.726Z,75.80
2022-12-12T14:18:02.022Z,74.21
2022-12-12T14:20:36.945Z,74.55
2022-12-12T14:23:24.731Z,74.70
2022-12-12T14:25:59.871Z,75.40
2022-12-12T14:28:33.793Z,75.68
2022-12-12T14:31:14.840Z,75.45
2022-12-12T14:33:55.733Z,76.16
2022-12-12T14:37:12.949Z,76.48
2022-12-12T14:40:21.555Z,77.20
2022-12-12T14:43:22.982Z,76.84
2022-12-12T14:46:01.315Z,76.98
2022-12-12T14:48:35.946Z,77.39
2022-12-12T14:51:29.738Z,78.17
2022-12-12T14:54:04.328Z,78.57
2022-12-12T14:56:49.139Z,78.19
2022-12-12T14:59:29.917Z,78.34
2022-12-12T15:02:33.898Z,78.74
2022-12-12T15:05:08.029Z,78.40
2022-12-12T15:07:40.044Z,78.84
2022-12-12T15:10:30.647Z,78.90
2022-12-12T15:13:02.668Z,78.96
2022-12-12T15:15:35.587Z,79.34
2022-12-12T15:18:12.742Z,79.40
2022-12-12T15:20:44.678Z,79.89
2022-12-12T15:23:19.846Z,80.22
2022-12-12T15:25:55.942Z,79.89
2022-12-12T15:28:28.732Z,80.52
2022-12-12T15:31:01.310Z,80.66
2022-12-12T15:33:38.953Z,80.68
2022-12-12T15:36:29.090Z,80.50
2022-12-12T15:39:14.500Z,80.77
2022-12-12T15:41:47.436Z,80.51
2022-12-12T15:44:21.067Z,80.73
2022-12-12T15:46:53.448Z,80.96
2022-12-12T15:49:44.148Z,81.98
2022-12-12T15:52:29.984Z,81.95
2022-12-12T15:55:05.129Z,82.20
2022-12-12T15:57:49.887Z,82.62
2022-12-12T16:00:34.904Z,82.59
2022-12-12T16:03:27.175Z,82.87
2022-12-12T16:06:17.412Z,83.14
2022-12-12T16:08:54.410Z,83.65
2022-12-12T16:11:47.486Z,83.54
2022-12-12T16:14:42.098Z,83.63
2022-12-12T16:17:23.595Z,83.52
2022-12-12T16:19:58.998Z,83.36
2022-12-12T16:22:46.701Z,83.59
2022-12-12T16:25:28.278Z,83.68
2022-12-12T16:28:06.076Z,83.76
2022-12-12T16:30:42.005Z,83.38
2022-12-12T16:33:35.266Z,83.63
2022-12-12T16:36:13.405Z,84.08
2022-12-12T16:38:45.441Z,84.29
2022-12-12T16:41:18.822Z,84.64
2022-12-12T16:43:51.050Z,84.71
2022-12-12T16:46:25.910Z,85.04
2022-12-12T16:49:04.743Z,84.74
2022-12-12T16:51:41.163Z,84.77
2022-12-12T16:54:17.263Z,84.63
2022-12-12T16:56:52.679Z,84.96
2022-12-12T16:59:24.733Z,85.17
2022-12-12T17:01:56.710Z,85.60
2022-12-12T17:04:29.261Z,85.82
2022-12-12T17:07:01.291Z,85.93
2022-12-12T17:09:33.252Z,85.86
2022-12-12T17:12:05.645Z,85.92
2022-12-12T17:14:37.967Z,85.98
2022-12-12T17:17:09.920Z,85.71
2022-12-12T17:19:41.925Z,86.08
2022-12-12T17:22:13.946Z,86.46
2022-12-12T17:24:45.875Z,86.08
2022-12-12T17:27:17.841Z,86.25
2022-12-12T17:29:49.786Z,86.40
2022-12-12T17:32:24.521Z,86.98
2022-12-12T17:34:57.172Z,86.86
2022-12-12T17:37:29.196Z,86.79
2022-12-12T17:40:01.974Z,86.64
2022-12-12T17:42:34.195Z,86.34
2022-12-12T17:45:08.154Z,86.53
2022-12-12T17:47:40.189Z,86.72
2022-12-12T17:50:12.805Z,86.71
2022-12-12T17:52:45.022Z,86.66
2022-12-12T17:55:53.044Z,87.24
2022-12-12T17:58:08.987Z,87.51
2022-12-12T18:00:41.008Z,87.97
2022-12-12T18:03:13.189Z,87.40
2022-12-12T18:05:45.133Z,87.27
2022-12-12T18:08:18.432Z,86.86
2022-12-12T18:10:50.436Z,87.41
2022-12-12T18:13:22.482Z,87.84
2022-12-12T18:15:59.220Z,88.01
2022-12-12T18:18:32.457Z,87.87
2022-12-12T18:21:35.867Z,87.32
2022-12-12T18:24:08.137Z,87.56
2022-12-12T18:26:40.519Z,87.46
2022-12-12T18:29:13.927Z,87.08
2022-12-12T18:31:45.967Z,87.17
2022-12-12T18:34:18.132Z,87.45
2022-12-12T18:36:50.270Z,88.18
2022-12-12T18:39:22.342Z,87.87
2022-12-12T18:41:54.351Z,87.64
2022-12-12T18:44:26.291Z,87.36
2022-12-12T18:46:58.320Z,87.17
2022-12-12T18:49:30.291Z,88.19
2022-12-12T18:52:04.561Z,88.21
2022-12-12T18:54:36.519Z,87.97
2022-12-12T18:57:08.522Z,87.87
2022-12-12T18:59:40.533Z,87.90
2022-12-12T19:02:13.902Z,87.85
2022-12-12T19:04:47.777Z,87.88
2022-12-12T19:07:19.944Z,88.08
2022-12-12T19:09:52.209Z,88.09
2022-12-12T19:12:24.391Z,88.10
2022-12-12T19:17:48.514Z,88.40
2022-12-12T19:20:20.478Z,88.26
2022-12-12T19:22:52.444Z,88.18
2022-12-12T19:25:24.449Z,88.18
2022-12-12T19:27:56.377Z,88.37
2022-12-12T19:30:29.810Z,88.48
2022-12-12T19:33:01.805Z,88.43
2022-12-12T19:35:38.135Z,88.79
2022-12-12T19:38:10.136Z,88.88
2022-12-12T19:40:42.720Z,89.30
2022-12-12T19:43:14.752Z,89.08
2022-12-12T19:45:46.773Z,89.00
2022-12-12T19:48:18.707Z,89.14
2022-12-12T19:50:50.727Z,89.11
2022-12-12T19:53:22.708Z,89.10
2022-12-12T19:55:54.759Z,89.45
2022-12-12T19:58:27.293Z,90.15
2022-12-12T20:01:08.696Z,90.00
2022-12-12T20:03:41.451Z,89.63
2022-12-12T20:06:13.677Z,89.87
2022-12-12T20:08:46.322Z,89.65
2022-12-12T20:11:22.056Z,89.90
2022-12-12T20:13:56.932Z,89.49
2022-12-12T20:16:30.310Z,89.87
2022-12-12T20:19:02.362Z,90.17
2022-12-12T20:24:26.515Z,90.26
2022-12-12T20:26:59.967Z,90.41
2022-12-12T20:29:32.650Z,90.82
2022-12-12T20:32:05.070Z,91.04
2022-12-12T20:34:37.038Z,90.80
2022-12-12T20:37:09.439Z,90.70
2022-12-12T20:39:41.793Z,91.28
2022-12-12T20:42:13.967Z,91.51
2022-12-12T20:44:45.911Z,91.59
2022-12-12T20:47:18.008Z,91.87
2022-12-12T20:49:50.561Z,91.89
2022-12-12T20:52:22.622Z,92.06
2022-12-12T20:54:54.682Z,91.63
2022-12-12T20:57:27.271Z,91.69
2022-12-12T20:59:59.258Z,91.68
2022-12-12T21:02:31.285Z,91.92
2022-12-12T21:05:05.695Z,91.72
2022-12-12T21:07:37.725Z,91.57
2022-12-12T21:10:10.019Z,91.29
2022-12-12T21:12:42.496Z,91.34
2022-12-12T21:15:14.753Z,91.32
2022-12-12T21:17:47.008Z,91.05
2022-12-12T21:20:19.052Z,91.31
2022-12-12T21:22:51.063Z,91.24
2022-12-12T21:25:24.437Z,90.58
2022-12-12T21:27:57.221Z,90.53
2022-12-12T21:30:29.212Z,90.27
2022-12-12T21:33:01.309Z,90.46
2022-12-12T21:35:35.601Z,90.55
2022-12-12T21:38:07.631Z,90.92
2022-12-12T21:40:39.717Z,90.62
2022-12-12T21:43:11.661Z,90.77
2022-12-12T21:45:43.616Z,90.78
2022-12-12T21:48:15.677Z,90.89
2022-12-12T21:50:47.731Z,90.98
2022-12-12T21:53:34.736Z,91.16
2022-12-12T21:56:08.765Z,91.22
2022-12-12T21:58:42.416Z,91.17
2022-12-12T22:01:20.454Z,91.34
2022-12-12T22:03:54.079Z,91.27
2022-12-12T22:06:29.778Z,91.62
2022-12-12T22:09:07.121Z,90.79
2022-12-12T22:11:50.194Z,91.32
2022-12-12T22:14:24.603Z,90.99
2022-12-12T22:16:56.506Z,91.16
2022-12-12T22:19:28.695Z,91.41
2022-12-12T22:22:00.628Z,91.20
2022-12-12T22:24:32.705Z,91.46
2022-12-12T22:27:04.617Z,91.08
2022-12-12T22:29:36.801Z,90.45
2022-12-12T22:32:08.735Z,90.64
2022-12-12T22:34:40.665Z,90.41
2022-12-12T22:37:12.601Z,90.66
2022-12-12T22:39:44.682Z,90.74
2022-12-12T22:42:16.668Z,90.35
2022-12-12T22:44:49.012Z,90.40
2022-12-12T22:47:20.928Z,90.53
2022-12-12T22:49:52.880Z,90.49
2022-12-12T22:52:25.586Z,90.69
2022-12-12T22:54:57.557Z,91.42
2022-12-12T22:57:29.472Z,91.97
2022-12-12T23:00:01.548Z,91.37
2022-12-12T23:02:34.286Z,91.69
2022-12-12T23:05:06.607Z,91.56
2022-12-12T23:07:38.654Z,91.60
2022-12-12T23:10:10.697Z,91.24
2022-12-12T23:12:42.702Z,91.19
2022-12-12T23:15:14.986Z,91.29
2022-12-12T23:17:47.114Z,91.26
2022-12-12T23:20:20.259Z,90.86
2022-12-12T23:22:52.200Z,91.35
2022-12-12T23:25:24.149Z,91.26
2022-12-12T23:27:56.074Z,91.60
2022-12-12T23:30:28.219Z,92.00
2022-12-12T23:33:00.153Z,91.88
2022-12-12T23:35:32.078Z,91.96
2022-12-12T23:38:04.036Z,91.25
2022-12-12T23:40:36.016Z,91.69
2022-12-12T23:43:08.059Z,91.26
2022-12-12T23:45:40.169Z,91.66
2022-12-12T23:48:12.158Z,91.23
2022-12-12T23:50:44.121Z,91.62
2022-12-12T23:53:16.083Z,92.15
2022-12-12T23:55:48.087Z,91.63
2022-12-12T23:58:20.166Z,91.22
